sensor_id;sensor_type;location;lat;lon;timestamp;pressure;altitude;pressure_sealevel;temperature;humidity
75617;BME280;64200;55.426;37.758;2023-02-22T00:03:50;97871.19;;;-11.56;51.71
75617;BME280;64200;55.426;37.758;2023-02-22T00:08:51;97872.66;;;-11.62;51.78
75617;BME280;64200;55.426;37.758;2023-02-22T00:13:52;97888.44;;;-11.61;51.26
75617;BME280;64200;55.426;37.758;2023-02-22T00:18:56;97879.59;;;-11.61;51.95
75617;BME280;64200;55.426;37.758;2023-02-22T00:23:57;97892.31;;;-11.58;51.74
75617;BME280;64200;55.426;37.758;2023-02-22T00:28:57;97891.72;;;-11.71;51.59
75617;BME280;64200;55.426;37.758;2023-02-22T00:33:58;97885.34;;;-11.86;52.09
75617;BME280;64200;55.426;37.758;2023-02-22T00:38:59;97913.19;;;-11.75;52.70
75617;BME280;64200;55.426;37.758;2023-02-22T00:44:00;97920.53;;;-11.72;53.19
75617;BME280;64200;55.426;37.758;2023-02-22T00:49:00;97914.81;;;-11.70;53.05
75617;BME280;64200;55.426;37.758;2023-02-22T00:54:01;97924.00;;;-11.71;53.04
75617;BME280;64200;55.426;37.758;2023-02-22T00:59:03;97925.16;;;-11.72;53.15
75617;BME280;64200;55.426;37.758;2023-02-22T01:04:03;97937.31;;;-11.78;53.22
75617;BME280;64200;55.426;37.758;2023-02-22T01:09:04;97945.75;;;-11.57;53.45
75617;BME280;64200;55.426;37.758;2023-02-22T01:14:06;97951.72;;;-11.44;52.26
75617;BME280;64200;55.426;37.758;2023-02-22T01:19:08;97950.53;;;-11.46;51.64
75617;BME280;64200;55.426;37.758;2023-02-22T01:24:10;97954.72;;;-11.49;52.01
75617;BME280;64200;55.426;37.758;2023-02-22T01:29:16;97974.94;;;-11.59;51.68
75617;BME280;64200;55.426;37.758;2023-02-22T01:34:18;97979.81;;;-11.88;52.72
75617;BME280;64200;55.426;37.758;2023-02-22T01:39:18;97993.09;;;-11.98;52.37
75617;BME280;64200;55.426;37.758;2023-02-22T01:44:32;97990.09;;;-12.16;52.54
75617;BME280;64200;55.426;37.758;2023-02-22T01:49:42;97996.78;;;-12.07;53.14
75617;BME280;64200;55.426;37.758;2023-02-22T01:54:48;98005.44;;;-12.17;52.90
75617;BME280;64200;55.426;37.758;2023-02-22T01:59:55;98013.59;;;-12.33;53.05
75617;BME280;64200;55.426;37.758;2023-02-22T02:04:58;98007.34;;;-12.37;53.26
75617;BME280;64200;55.426;37.758;2023-02-22T02:10:02;98018.59;;;-12.31;53.23
75617;BME280;64200;55.426;37.758;2023-02-22T02:15:31;98024.53;;;-12.22;53.32
75617;BME280;64200;55.426;37.758;2023-02-22T02:32:24;98049.34;;;-12.48;53.38
75617;BME280;64200;55.426;37.758;2023-02-22T02:48:02;98069.50;;;-12.74;53.73
75617;BME280;64200;55.426;37.758;2023-02-22T02:53:07;98069.19;;;-12.88;53.87
75617;BME280;64200;55.426;37.758;2023-02-22T02:58:16;98071.94;;;-12.85;54.46
75617;BME280;64200;55.426;37.758;2023-02-22T03:08:44;98083.72;;;-12.90;53.95
75617;BME280;64200;55.426;37.758;2023-02-22T03:14:05;98101.03;;;-12.87;54.60
75617;BME280;64200;55.426;37.758;2023-02-22T03:24:46;98104.78;;;-12.92;54.73
75617;BME280;64200;55.426;37.758;2023-02-22T03:29:55;98112.13;;;-12.88;54.53
75617;BME280;64200;55.426;37.758;2023-02-22T03:35:08;98120.25;;;-12.85;55.06
75617;BME280;64200;55.426;37.758;2023-02-22T03:40:15;98124.91;;;-12.82;54.33
75617;BME280;64200;55.426;37.758;2023-02-22T03:45:20;98129.44;;;-12.86;54.05
75617;BME280;64200;55.426;37.758;2023-02-22T03:50:31;98131.78;;;-12.84;53.91
75617;BME280;64200;55.426;37.758;2023-02-22T03:55:34;98144.94;;;-13.11;54.23
75617;BME280;64200;55.426;37.758;2023-02-22T04:00:35;98147.63;;;-13.11;54.55
75617;BME280;64200;55.426;37.758;2023-02-22T04:05:36;98158.34;;;-13.27;54.27
75617;BME280;64200;55.426;37.758;2023-02-22T04:10:36;98165.34;;;-13.22;54.41
75617;BME280;64200;55.426;37.758;2023-02-22T04:15:45;98158.38;;;-13.11;54.84
75617;BME280;64200;55.426;37.758;2023-02-22T04:20:46;98170.97;;;-13.12;54.82
75617;BME280;64200;55.426;37.758;2023-02-22T04:25:47;98183.09;;;-13.18;54.53
75617;BME280;64200;55.426;37.758;2023-02-22T04:30:47;98188.56;;;-13.14;54.78
75617;BME280;64200;55.426;37.758;2023-02-22T04:35:48;98185.00;;;-13.34;54.60
75617;BME280;64200;55.426;37.758;2023-02-22T04:40:48;98194.97;;;-13.35;54.42
75617;BME280;64200;55.426;37.758;2023-02-22T04:45:49;98203.59;;;-13.26;55.67
75617;BME280;64200;55.426;37.758;2023-02-22T04:50:49;98210.72;;;-13.17;54.65
75617;BME280;64200;55.426;37.758;2023-02-22T04:55:51;98213.38;;;-13.33;55.00
75617;BME280;64200;55.426;37.758;2023-02-22T05:00:52;98217.59;;;-13.32;55.10
75617;BME280;64200;55.426;37.758;2023-02-22T05:05:55;98227.50;;;-13.36;55.37
75617;BME280;64200;55.426;37.758;2023-02-22T05:10:55;98226.13;;;-13.14;55.42
75617;BME280;64200;55.426;37.758;2023-02-22T05:15:56;98233.09;;;-12.97;54.57
75617;BME280;64200;55.426;37.758;2023-02-22T05:20:56;98228.91;;;-13.11;54.52
75617;BME280;64200;55.426;37.758;2023-02-22T05:25:57;98225.72;;;-13.00;54.63
75617;BME280;64200;55.426;37.758;2023-02-22T05:30:57;98240.13;;;-12.77;55.13
75617;BME280;64200;55.426;37.758;2023-02-22T05:35:58;98252.34;;;-12.47;53.94
75617;BME280;64200;55.426;37.758;2023-02-22T05:40:59;98251.22;;;-12.46;53.50
75617;BME280;64200;55.426;37.758;2023-02-22T05:46:02;98266.38;;;-12.38;52.95
75617;BME280;64200;55.426;37.758;2023-02-22T05:51:03;98257.38;;;-12.30;53.38
75617;BME280;64200;55.426;37.758;2023-02-22T05:56:04;98276.97;;;-12.13;52.65
75617;BME280;64200;55.426;37.758;2023-02-22T06:01:07;98284.31;;;-11.94;52.71
75617;BME280;64200;55.426;37.758;2023-02-22T06:06:07;98278.00;;;-11.82;52.21
75617;BME280;64200;55.426;37.758;2023-02-22T06:11:10;98278.09;;;-11.79;52.09
75617;BME280;64200;55.426;37.758;2023-02-22T06:16:10;98275.41;;;-11.59;52.49
75617;BME280;64200;55.426;37.758;2023-02-22T06:21:11;98284.72;;;-11.18;51.72
75617;BME280;64200;55.426;37.758;2023-02-22T06:26:15;98284.03;;;-10.95;51.47
75617;BME280;64200;55.426;37.758;2023-02-22T06:31:16;98300.44;;;-10.38;51.71
75617;BME280;64200;55.426;37.758;2023-02-22T06:36:16;98298.09;;;-9.90;50.05
75617;BME280;64200;55.426;37.758;2023-02-22T06:41:17;98309.63;;;-9.66;49.64
75617;BME280;64200;55.426;37.758;2023-02-22T06:46:17;98316.00;;;-9.78;48.75
75617;BME280;64200;55.426;37.758;2023-02-22T06:51:21;98319.31;;;-9.34;48.73
75617;BME280;64200;55.426;37.758;2023-02-22T06:56:22;98311.88;;;-8.80;48.49
75617;BME280;64200;55.426;37.758;2023-02-22T07:01:22;98333.91;;;-7.96;48.36
75617;BME280;64200;55.426;37.758;2023-02-22T07:06:23;98338.72;;;-7.75;46.26
75617;BME280;64200;55.426;37.758;2023-02-22T07:11:23;98342.63;;;-7.69;45.29
75617;BME280;64200;55.426;37.758;2023-02-22T07:16:24;98350.19;;;-7.37;45.64
75617;BME280;64200;55.426;37.758;2023-02-22T07:21:26;98348.16;;;-6.74;45.48
75617;BME280;64200;55.426;37.758;2023-02-22T07:26:27;98344.41;;;-6.29;43.58
75617;BME280;64200;55.426;37.758;2023-02-22T07:31:27;98346.31;;;-5.15;43.18
75617;BME280;64200;55.426;37.758;2023-02-22T07:36:28;98367.25;;;-5.08;42.70
75617;BME280;64200;55.426;37.758;2023-02-22T07:41:28;98373.34;;;-4.64;40.63
75617;BME280;64200;55.426;37.758;2023-02-22T07:46:29;98362.63;;;-4.15;40.68
75617;BME280;64200;55.426;37.758;2023-02-22T07:51:30;98380.22;;;-3.22;37.80
75617;BME280;64200;55.426;37.758;2023-02-22T07:56:30;98405.84;;;-2.74;37.18
75617;BME280;64200;55.426;37.758;2023-02-22T08:01:31;98398.84;;;-3.17;36.59
75617;BME280;64200;55.426;37.758;2023-02-22T08:06:32;98413.25;;;-2.40;36.40
75617;BME280;64200;55.426;37.758;2023-02-22T08:11:33;98413.25;;;-0.84;34.18
75617;BME280;64200;55.426;37.758;2023-02-22T08:16:33;98424.75;;;0.08;32.31
75617;BME280;64200;55.426;37.758;2023-02-22T08:21:34;98415.16;;;-0.81;31.41
75617;BME280;64200;55.426;37.758;2023-02-22T08:26:34;98423.31;;;-1.01;32.05
75617;BME280;64200;55.426;37.758;2023-02-22T08:31:35;98421.78;;;-1.49;32.48
75617;BME280;64200;55.426;37.758;2023-02-22T08:36:41;98436.28;;;-0.01;32.57
75617;BME280;64200;55.426;37.758;2023-02-22T08:41:41;98448.78;;;2.45;31.87
75617;BME280;64200;55.426;37.758;2023-02-22T08:46:42;98448.47;;;3.52;28.17
75617;BME280;64200;55.426;37.758;2023-02-22T08:51:43;98462.09;;;4.44;28.12
75617;BME280;64200;55.426;37.758;2023-02-22T08:56:43;98473.59;;;4.92;27.36
75617;BME280;64200;55.426;37.758;2023-02-22T09:01:44;98469.72;;;4.40;24.21
75617;BME280;64200;55.426;37.758;2023-02-22T09:06:44;98470.19;;;3.85;25.03
75617;BME280;64200;55.426;37.758;2023-02-22T09:11:50;98470.06;;;4.20;25.07
75617;BME280;64200;55.426;37.758;2023-02-22T09:16:52;98490.28;;;5.57;25.95
75617;BME280;64200;55.426;37.758;2023-02-22T09:21:54;98485.03;;;6.24;23.18
75617;BME280;64200;55.426;37.758;2023-02-22T09:26:55;98476.66;;;4.45;21.98
75617;BME280;64200;55.426;37.758;2023-02-22T09:31:58;98482.16;;;4.85;23.15
75617;BME280;64200;55.426;37.758;2023-02-22T09:36:59;98469.34;;;5.19;22.48
75617;BME280;64200;55.426;37.758;2023-02-22T09:47:04;98490.25;;;4.08;23.79
75617;BME280;64200;55.426;37.758;2023-02-22T09:52:17;98497.41;;;4.58;23.25
75617;BME280;64200;55.426;37.758;2023-02-22T09:57:30;98484.47;;;3.36;23.60
75617;BME280;64200;55.426;37.758;2023-02-22T10:02:36;98506.31;;;7.03;21.97
75617;BME280;64200;55.426;37.758;2023-02-22T10:08:04;98503.28;;;9.70;20.40
75617;BME280;64200;55.426;37.758;2023-02-22T10:24:30;98521.16;;;10.57;18.01
75617;BME280;64200;55.426;37.758;2023-02-22T10:29:38;98514.16;;;10.73;17.43
75617;BME280;64200;55.426;37.758;2023-02-22T10:34:46;98523.09;;;9.57;18.30
75617;BME280;64200;55.426;37.758;2023-02-22T10:39:49;98532.09;;;10.14;19.07
75617;BME280;64200;55.426;37.758;2023-02-22T10:44:52;98533.09;;;11.82;18.24
75617;BME280;64200;55.426;37.758;2023-02-22T10:49:56;98526.69;;;11.70;16.11
75617;BME280;64200;55.426;37.758;2023-02-22T10:54:58;98538.00;;;12.09;16.36
75617;BME280;64200;55.426;37.758;2023-02-22T11:00:17;98537.09;;;12.46;15.66
75617;BME280;64200;55.426;37.758;2023-02-22T11:05:37;98542.66;;;13.43;15.82
75617;BME280;64200;55.426;37.758;2023-02-22T11:10:38;98548.53;;;12.54;15.36
75617;BME280;64200;55.426;37.758;2023-02-22T11:15:39;98541.97;;;14.37;16.61
75617;BME280;64200;55.426;37.758;2023-02-22T11:20:39;98544.38;;;14.63;14.20
75617;BME280;64200;55.426;37.758;2023-02-22T11:25:40;98550.34;;;12.97;14.77
75617;BME280;64200;55.426;37.758;2023-02-22T11:30:42;98558.69;;;13.42;14.97
75617;BME280;64200;55.426;37.758;2023-02-22T11:35:51;98559.19;;;14.11;13.64
75617;BME280;64200;55.426;37.758;2023-02-22T11:41:14;98558.63;;;13.65;13.89
75617;BME280;64200;55.426;37.758;2023-02-22T11:46:21;98570.41;;;12.67;14.41
75617;BME280;64200;55.426;37.758;2023-02-22T11:56:35;98574.28;;;7.81;16.19
75617;BME280;64200;55.426;37.758;2023-02-22T12:01:57;98579.66;;;7.60;17.55
75617;BME280;64200;55.426;37.758;2023-02-22T12:13:02;98589.03;;;9.30;16.84
75617;BME280;64200;55.426;37.758;2023-02-22T12:18:22;98608.44;;;11.27;16.10
75617;BME280;64200;55.426;37.758;2023-02-22T12:23:29;98601.00;;;10.86;15.57
75617;BME280;64200;55.426;37.758;2023-02-22T12:28:36;98623.31;;;11.50;15.90
75617;BME280;64200;55.426;37.758;2023-02-22T12:38:58;98634.22;;;8.51;16.02
75617;BME280;64200;55.426;37.758;2023-02-22T12:44:09;98643.97;;;9.00;16.79
75617;BME280;64200;55.426;37.758;2023-02-22T12:49:28;98646.91;;;8.96;16.90
75617;BME280;64200;55.426;37.758;2023-02-22T13:00:21;98659.44;;;10.08;16.50
75617;BME280;64200;55.426;37.758;2023-02-22T13:05:29;98654.44;;;9.56;16.04
75617;BME280;64200;55.426;37.758;2023-02-22T13:16:25;98669.06;;;7.88;17.26
75617;BME280;64200;55.426;37.758;2023-02-22T13:21:50;98664.03;;;7.44;17.22
75617;BME280;64200;55.426;37.758;2023-02-22T13:27:19;98673.03;;;6.22;17.47
75617;BME280;64200;55.426;37.758;2023-02-22T13:54:02;98676.03;;;-2.74;25.47
75617;BME280;64200;55.426;37.758;2023-02-22T13:59:05;98672.50;;;-3.45;26.04
75617;BME280;64200;55.426;37.758;2023-02-22T14:04:26;98687.78;;;-3.80;27.77
75617;BME280;64200;55.426;37.758;2023-02-22T14:09:47;98686.63;;;-3.90;27.64
75617;BME280;64200;55.426;37.758;2023-02-22T14:25:43;98698.63;;;-5.03;30.32
75617;BME280;64200;55.426;37.758;2023-02-22T14:30:44;98707.38;;;-5.45;30.93
75617;BME280;64200;55.426;37.758;2023-02-22T14:35:44;98702.84;;;-6.01;32.43
75617;BME280;64200;55.426;37.758;2023-02-22T14:40:47;98706.31;;;-6.52;32.97
75617;BME280;64200;55.426;37.758;2023-02-22T14:45:52;98713.56;;;-6.63;33.92
75617;BME280;64200;55.426;37.758;2023-02-22T14:50:59;98713.63;;;-6.97;34.39
75617;BME280;64200;55.426;37.758;2023-02-22T14:56:06;98716.59;;;-7.10;35.67
75617;BME280;64200;55.426;37.758;2023-02-22T15:06:31;98731.44;;;-6.96;35.13
75617;BME280;64200;55.426;37.758;2023-02-22T15:11:34;98738.47;;;-7.26;35.62
75617;BME280;64200;55.426;37.758;2023-02-22T15:16:36;98745.03;;;-7.27;34.85
75617;BME280;64200;55.426;37.758;2023-02-22T15:21:44;98748.31;;;-7.44;35.75
75617;BME280;64200;55.426;37.758;2023-02-22T15:26:45;98759.25;;;-7.64;36.21
75617;BME280;64200;55.426;37.758;2023-02-22T15:31:46;98758.91;;;-7.89;37.86
75617;BME280;64200;55.426;37.758;2023-02-22T15:36:48;98761.38;;;-8.03;37.65
75617;BME280;64200;55.426;37.758;2023-02-22T15:42:12;98773.84;;;-8.22;39.30
75617;BME280;64200;55.426;37.758;2023-02-22T15:47:21;98768.63;;;-8.34;39.41
75617;BME280;64200;55.426;37.758;2023-02-22T15:52:24;98777.53;;;-8.57;40.29
75617;BME280;64200;55.426;37.758;2023-02-22T15:57:25;98773.97;;;-8.61;40.50
75617;BME280;64200;55.426;37.758;2023-02-22T16:02:29;98784.72;;;-8.41;40.14
75617;BME280;64200;55.426;37.758;2023-02-22T16:07:30;98790.88;;;-8.44;41.15
75617;BME280;64200;55.426;37.758;2023-02-22T16:12:31;98794.84;;;-8.61;41.69
75617;BME280;64200;55.426;37.758;2023-02-22T16:17:37;98801.09;;;-8.77;41.43
75617;BME280;64200;55.426;37.758;2023-02-22T16:22:40;98798.94;;;-8.68;40.85
75617;BME280;64200;55.426;37.758;2023-02-22T16:27:50;98787.75;;;-8.89;43.23
75617;BME280;64200;55.426;37.758;2023-02-22T16:32:54;98796.19;;;-8.91;42.16
75617;BME280;64200;55.426;37.758;2023-02-22T16:38:03;98820.22;;;-9.05;44.22
75617;BME280;64200;55.426;37.758;2023-02-22T16:43:11;98807.22;;;-9.19;43.77
75617;BME280;64200;55.426;37.758;2023-02-22T16:48:20;98824.78;;;-9.09;44.54
75617;BME280;64200;55.426;37.758;2023-02-22T16:53:25;98821.50;;;-9.19;44.67
75617;BME280;64200;55.426;37.758;2023-02-22T16:58:32;98833.94;;;-9.14;43.94
75617;BME280;64200;55.426;37.758;2023-02-22T17:03:32;98829.44;;;-9.26;45.01
75617;BME280;64200;55.426;37.758;2023-02-22T17:08:33;98847.06;;;-9.32;45.07
75617;BME280;64200;55.426;37.758;2023-02-22T17:13:34;98843.31;;;-9.27;44.58
75617;BME280;64200;55.426;37.758;2023-02-22T17:18:34;98847.19;;;-9.09;44.99
75617;BME280;64200;55.426;37.758;2023-02-22T17:23:35;98858.19;;;-9.18;44.94
75617;BME280;64200;55.426;37.758;2023-02-22T17:28:35;98863.66;;;-9.14;44.94
75617;BME280;64200;55.426;37.758;2023-02-22T17:33:38;98862.88;;;-9.14;44.24
75617;BME280;64200;55.426;37.758;2023-02-22T17:38:39;98859.84;;;-9.29;43.86
75617;BME280;64200;55.426;37.758;2023-02-22T17:43:41;98854.75;;;-9.34;44.45
75617;BME280;64200;55.426;37.758;2023-02-22T17:48:42;98870.31;;;-9.27;44.21
75617;BME280;64200;55.426;37.758;2023-02-22T17:53:42;98864.41;;;-9.33;43.90
75617;BME280;64200;55.426;37.758;2023-02-22T17:58:48;98876.25;;;-9.38;45.28
75617;BME280;64200;55.426;37.758;2023-02-22T18:03:54;98867.41;;;-9.54;45.11
75617;BME280;64200;55.426;37.758;2023-02-22T18:08:56;98866.16;;;-9.57;44.87
75617;BME280;64200;55.426;37.758;2023-02-22T18:13:58;98879.94;;;-9.46;44.89
75617;BME280;64200;55.426;37.758;2023-02-22T18:18:58;98886.97;;;-9.41;44.64
75617;BME280;64200;55.426;37.758;2023-02-22T18:24:00;98882.72;;;-9.42;45.97
75617;BME280;64200;55.426;37.758;2023-02-22T18:29:03;98884.47;;;-9.50;45.71
75617;BME280;64200;55.426;37.758;2023-02-22T18:34:04;98890.22;;;-9.51;45.11
75617;BME280;64200;55.426;37.758;2023-02-22T18:39:04;98884.38;;;-9.54;44.50
75617;BME280;64200;55.426;37.758;2023-02-22T18:44:14;98892.91;;;-9.51;46.08
75617;BME280;64200;55.426;37.758;2023-02-22T18:49:15;98905.72;;;-9.48;45.92
75617;BME280;64200;55.426;37.758;2023-02-22T18:54:16;98904.31;;;-9.42;45.91
75617;BME280;64200;55.426;37.758;2023-02-22T18:59:18;98898.63;;;-9.37;46.51
75617;BME280;64200;55.426;37.758;2023-02-22T19:04:19;98905.34;;;-9.31;46.74
75617;BME280;64200;55.426;37.758;2023-02-22T19:09:21;98922.16;;;-9.22;45.82
75617;BME280;64200;55.426;37.758;2023-02-22T19:14:21;98913.34;;;-9.19;46.92
75617;BME280;64200;55.426;37.758;2023-02-22T19:19:22;98925.59;;;-9.05;46.99
75617;BME280;64200;55.426;37.758;2023-02-22T19:24:22;98929.75;;;-8.92;46.69
75617;BME280;64200;55.426;37.758;2023-02-22T19:29:23;98924.84;;;-8.86;45.93
75617;BME280;64200;55.426;37.758;2023-02-22T19:34:23;98923.72;;;-8.85;45.75
75617;BME280;64200;55.426;37.758;2023-02-22T19:39:27;98923.03;;;-8.82;46.09
75617;BME280;64200;55.426;37.758;2023-02-22T19:44:28;98920.66;;;-8.84;46.71
75617;BME280;64200;55.426;37.758;2023-02-22T19:49:28;98926.34;;;-8.89;46.65
75617;BME280;64200;55.426;37.758;2023-02-22T19:54:29;98937.78;;;-8.95;46.75
75617;BME280;64200;55.426;37.758;2023-02-22T19:59:29;98941.97;;;-8.98;45.62
75617;BME280;64200;55.426;37.758;2023-02-22T20:04:30;98941.63;;;-8.96;45.48
75617;BME280;64200;55.426;37.758;2023-02-22T20:09:31;98952.44;;;-8.96;46.16
75617;BME280;64200;55.426;37.758;2023-02-22T20:14:42;98942.56;;;-9.05;46.17
75617;BME280;64200;55.426;37.758;2023-02-22T20:19:43;98941.22;;;-9.14;46.75
75617;BME280;64200;55.426;37.758;2023-02-22T20:24:43;98948.97;;;-9.29;46.09
75617;BME280;64200;55.426;37.758;2023-02-22T20:29:44;98953.44;;;-9.37;46.31
75617;BME280;64200;55.426;37.758;2023-02-22T20:34:45;98952.22;;;-9.39;46.99
75617;BME280;64200;55.426;37.758;2023-02-22T20:39:46;98965.13;;;-9.32;46.16
75617;BME280;64200;55.426;37.758;2023-02-22T20:44:50;98959.38;;;-9.47;46.95
75617;BME280;64200;55.426;37.758;2023-02-22T20:49:51;98973.47;;;-9.38;46.08
75617;BME280;64200;55.426;37.758;2023-02-22T20:54:52;98975.47;;;-9.34;46.39
75617;BME280;64200;55.426;37.758;2023-02-22T20:59:52;98974.88;;;-9.44;47.30
75617;BME280;64200;55.426;37.758;2023-02-22T21:04:53;98978.25;;;-9.47;47.26
75617;BME280;64200;55.426;37.758;2023-02-22T21:09:53;98968.75;;;-9.41;46.93
75617;BME280;64200;55.426;37.758;2023-02-22T21:14:54;98988.25;;;-9.47;47.78
75617;BME280;64200;55.426;37.758;2023-02-22T21:19:55;98980.63;;;-9.45;46.87
75617;BME280;64200;55.426;37.758;2023-02-22T21:24:56;98990.28;;;-9.44;47.44
75617;BME280;64200;55.426;37.758;2023-02-22T21:29:58;98997.00;;;-9.38;46.84
75617;BME280;64200;55.426;37.758;2023-02-22T21:34:58;98993.34;;;-9.46;46.68
75617;BME280;64200;55.426;37.758;2023-02-22T21:39:59;99009.00;;;-9.36;46.96
75617;BME280;64200;55.426;37.758;2023-02-22T21:44:59;99012.91;;;-9.33;47.18
75617;BME280;64200;55.426;37.758;2023-02-22T21:50:00;99003.16;;;-9.38;47.72
75617;BME280;64200;55.426;37.758;2023-02-22T21:55:00;98998.81;;;-9.42;48.43
75617;BME280;64200;55.426;37.758;2023-02-22T22:00:02;99018.94;;;-9.40;48.10
75617;BME280;64200;55.426;37.758;2023-02-22T22:05:14;99019.28;;;-9.41;48.36
75617;BME280;64200;55.426;37.758;2023-02-22T22:10:17;99027.75;;;-9.43;48.78
75617;BME280;64200;55.426;37.758;2023-02-22T22:15:24;99016.59;;;-9.41;48.15
75617;BME280;64200;55.426;37.758;2023-02-22T22:20:24;99022.34;;;-9.43;48.37
75617;BME280;64200;55.426;37.758;2023-02-22T22:25:25;99035.50;;;-9.41;48.10
75617;BME280;64200;55.426;37.758;2023-02-22T22:30:27;99033.84;;;-9.46;48.38
75617;BME280;64200;55.426;37.758;2023-02-22T22:35:31;99037.13;;;-9.52;48.64
75617;BME280;64200;55.426;37.758;2023-02-22T22:40:32;99043.81;;;-9.62;49.16
75617;BME280;64200;55.426;37.758;2023-02-22T22:45:33;99034.66;;;-9.74;49.15
75617;BME280;64200;55.426;37.758;2023-02-22T22:50:34;99038.47;;;-9.75;49.22
75617;BME280;64200;55.426;37.758;2023-02-22T22:55:38;99043.44;;;-9.77;49.89
75617;BME280;64200;55.426;37.758;2023-02-22T23:00:39;99033.13;;;-9.87;49.50
75617;BME280;64200;55.426;37.758;2023-02-22T23:05:41;99039.22;;;-9.90;49.79
75617;BME280;64200;55.426;37.758;2023-02-22T23:10:41;99038.63;;;-9.83;50.00
75617;BME280;64200;55.426;37.758;2023-02-22T23:15:43;99042.63;;;-10.06;49.66
75617;BME280;64200;55.426;37.758;2023-02-22T23:20:47;99040.78;;;-10.17;50.14
75617;BME280;64200;55.426;37.758;2023-02-22T23:26:09;99044.56;;;-10.34;51.19
75617;BME280;64200;55.426;37.758;2023-02-22T23:31:17;99051.97;;;-10.44;51.32
75617;BME280;64200;55.426;37.758;2023-02-22T23:36:18;99054.69;;;-10.56;51.51
75617;BME280;64200;55.426;37.758;2023-02-22T23:41:19;99058.53;;;-10.82;51.12
75617;BME280;64200;55.426;37.758;2023-02-22T23:46:19;99066.50;;;-10.85;51.71
75617;BME280;64200;55.426;37.758;2023-02-22T23:51:22;99068.19;;;-10.93;51.72
75617;BME280;64200;55.426;37.758;2023-02-22T23:56:26;99062.69;;;-10.97;52.23
